createdAt,value
2022-12-08T00:01:32.337Z,14.00
2022-12-08T00:04:01.445Z,12.93
2022-12-08T00:06:50.400Z,13.40
2022-12-08T00:09:23.417Z,13.40
2022-12-08T00:11:57.324Z,12.63
2022-12-08T00:14:28.119Z,12.03
2022-12-08T00:16:56.305Z,11.93
2022-12-08T00:19:25.231Z,13.50
2022-12-08T00:21:55.625Z,11.83
2022-12-08T00:24:25.729Z,12.67
2022-12-08T00:26:53.471Z,14.10
2022-12-08T00:29:21.234Z,13.87
2022-12-08T00:31:49.161Z,12.90
2022-12-08T00:34:17.971Z,12.73
2022-12-08T00:36:45.824Z,15.13
2022-12-08T00:39:16.551Z,16.40
2022-12-08T00:42:01.719Z,14.80
2022-12-08T00:44:29.566Z,13.07
2022-12-08T00:46:57.386Z,11.90
2022-12-08T00:49:25.537Z,11.77
2022-12-08T00:51:53.373Z,12.33
2022-12-08T00:54:23.935Z,12.63
2022-12-08T00:56:51.798Z,13.50
2022-12-08T00:59:19.767Z,14.03
2022-12-08T01:01:48.758Z,15.40
2022-12-08T01:04:18.919Z,13.70
2022-12-08T01:06:47.292Z,13.47
2022-12-08T01:09:16.404Z,13.30
2022-12-08T01:11:46.154Z,14.20
2022-12-08T01:14:14.843Z,13.63
2022-12-08T01:16:43.470Z,13.40
2022-12-08T01:19:12.319Z,13.47
2022-12-08T01:21:40.332Z,14.13
2022-12-08T01:24:11.594Z,14.10
2022-12-08T01:26:39.361Z,13.00
2022-12-08T01:29:08.991Z,13.70
2022-12-08T01:31:36.998Z,12.33
2022-12-08T01:34:05.144Z,13.67
2022-12-08T01:36:36.986Z,14.33
2022-12-08T01:39:06.786Z,15.23
2022-12-08T01:41:36.425Z,14.83
2022-12-08T01:44:25.651Z,13.83
2022-12-08T01:46:55.693Z,13.60
2022-12-08T01:49:27.841Z,14.00
2022-12-08T01:52:00.103Z,14.67
2022-12-08T01:54:32.110Z,15.23
2022-12-08T01:57:04.069Z,15.13
2022-12-08T01:59:34.165Z,15.60
2022-12-08T02:02:03.570Z,14.50
2022-12-08T02:04:31.457Z,14.27
2022-12-08T02:07:03.691Z,15.93
2022-12-08T02:09:36.765Z,14.17
2022-12-08T02:12:05.253Z,12.40
2022-12-08T02:14:33.288Z,14.00
2022-12-08T02:17:14.008Z,13.87
2022-12-08T02:20:14.535Z,16.50
2022-12-08T02:22:53.224Z,15.53
2022-12-08T02:25:29.805Z,16.40
2022-12-08T02:28:04.807Z,14.70
2022-12-08T02:30:45.504Z,15.80
2022-12-08T02:33:43.007Z,13.97
2022-12-08T02:36:18.715Z,15.57
2022-12-08T02:38:53.213Z,17.23
2022-12-08T02:41:31.481Z,15.90
2022-12-08T02:44:06.770Z,15.67
2022-12-08T02:46:40.596Z,16.70
2022-12-08T02:49:08.735Z,13.93
2022-12-08T02:51:37.808Z,16.37
2022-12-08T02:54:05.967Z,14.93
2022-12-08T02:56:47.463Z,14.57
2022-12-08T02:59:31.811Z,14.47
2022-12-08T03:02:24.646Z,14.13
2022-12-08T03:04:59.101Z,18.50
2022-12-08T03:07:33.376Z,16.13
2022-12-08T03:10:07.964Z,15.33
2022-12-08T03:12:42.375Z,15.17
2022-12-08T03:15:14.316Z,17.53
2022-12-08T03:17:46.665Z,15.00
2022-12-08T03:20:22.172Z,14.53
2022-12-08T03:22:54.308Z,16.60
2022-12-08T03:25:24.129Z,15.90
2022-12-08T03:27:52.298Z,16.73
2022-12-08T03:30:20.250Z,18.23
2022-12-08T03:32:53.933Z,15.20
2022-12-08T03:35:26.037Z,17.33
2022-12-08T03:38:03.684Z,15.50
2022-12-08T03:40:31.490Z,15.00
2022-12-08T03:42:59.271Z,15.73
2022-12-08T03:45:27.414Z,16.03
2022-12-08T03:47:55.173Z,16.37
2022-12-08T03:50:23.415Z,15.87
2022-12-08T03:52:51.271Z,15.23
2022-12-08T03:55:21.424Z,16.73
2022-12-08T03:57:49.186Z,17.67
2022-12-08T04:00:17.950Z,17.13
2022-12-08T04:02:45.877Z,17.27
2022-12-08T04:05:13.684Z,16.97
2022-12-08T04:07:41.543Z,15.37
2022-12-08T04:10:10.611Z,16.90
2022-12-08T04:12:39.759Z,16.97
2022-12-08T04:15:08.742Z,16.53
2022-12-08T04:17:36.506Z,20.63
2022-12-08T04:20:04.912Z,17.60
2022-12-08T04:22:32.903Z,17.07
2022-12-08T04:25:00.882Z,16.77
2022-12-08T04:27:29.036Z,17.37
2022-12-08T04:29:58.202Z,19.23
2022-12-08T04:32:26.035Z,16.27
2022-12-08T04:34:53.762Z,16.40
2022-12-08T04:37:21.522Z,16.00
2022-12-08T04:39:49.291Z,14.77
2022-12-08T04:42:17.038Z,14.73
2022-12-08T04:44:44.805Z,16.73
2022-12-08T04:47:14.166Z,17.70
2022-12-08T04:49:42.034Z,16.00
2022-12-08T04:52:09.804Z,15.80
2022-12-08T04:54:39.719Z,16.77
2022-12-08T04:57:07.605Z,15.50
2022-12-08T04:59:35.469Z,15.20
2022-12-08T05:02:03.598Z,16.87
2022-12-08T05:04:32.988Z,16.77
2022-12-08T05:07:00.753Z,16.30
2022-12-08T05:09:28.763Z,18.30
2022-12-08T05:11:56.745Z,14.63
2022-12-08T05:14:24.724Z,16.70
2022-12-08T05:16:52.573Z,13.87
2022-12-08T05:19:20.398Z,17.33
2022-12-08T05:21:49.619Z,14.77
2022-12-08T05:24:17.453Z,16.87
2022-12-08T05:26:45.232Z,15.30
2022-12-08T05:29:12.997Z,15.70
2022-12-08T05:31:40.843Z,14.97
2022-12-08T05:34:08.846Z,15.33
2022-12-08T05:36:36.618Z,15.07
2022-12-08T05:39:05.766Z,18.37
2022-12-08T05:41:33.517Z,17.30
2022-12-08T05:44:01.274Z,14.20
2022-12-08T05:46:29.430Z,15.10
2022-12-08T05:48:57.310Z,13.17
2022-12-08T05:51:25.555Z,13.80
2022-12-08T05:53:54.514Z,15.90
2022-12-08T05:56:24.074Z,15.63
2022-12-08T05:58:51.891Z,14.83
2022-12-08T06:01:24.228Z,16.40
2022-12-08T06:03:52.313Z,14.30
2022-12-08T06:06:20.825Z,15.27
2022-12-08T06:08:48.714Z,14.87
2022-12-08T06:11:19.905Z,13.80
2022-12-08T06:13:49.085Z,12.93
2022-12-08T06:16:17.354Z,14.77
2022-12-08T06:18:45.424Z,14.90
2022-12-08T06:21:15.479Z,16.20
2022-12-08T06:23:44.105Z,17.37
2022-12-08T06:26:14.746Z,16.87
2022-12-08T06:28:43.731Z,16.03
2022-12-08T06:31:16.027Z,16.33
2022-12-08T06:33:44.536Z,13.60
2022-12-08T06:36:14.198Z,15.67
2022-12-08T06:38:43.812Z,15.30
2022-12-08T06:41:12.332Z,14.90
2022-12-08T06:43:40.949Z,16.23
2022-12-08T06:46:11.413Z,16.43
2022-12-08T06:48:40.657Z,14.47
2022-12-08T06:51:09.441Z,15.33
2022-12-08T06:53:37.728Z,15.47
2022-12-08T06:56:06.414Z,17.93
2022-12-08T06:58:34.214Z,15.97
2022-12-08T07:01:06.342Z,14.80
2022-12-08T07:03:34.207Z,14.03
2022-12-08T07:06:04.535Z,11.33
2022-12-08T07:08:33.109Z,10.80
2022-12-08T07:11:01.115Z,12.53
2022-12-08T07:13:28.851Z,10.43
2022-12-08T07:15:56.685Z,10.77
2022-12-08T07:18:24.475Z,12.73
2022-12-08T07:20:52.304Z,11.07
2022-12-08T07:23:21.377Z,9.70
2022-12-08T07:25:49.182Z,9.93
2022-12-08T07:28:16.951Z,9.70
2022-12-08T07:30:44.739Z,11.33
2022-12-08T07:33:12.583Z,11.23
2022-12-08T07:35:43.813Z,12.87
2022-12-08T07:38:14.125Z,10.00
2022-12-08T07:40:43.386Z,11.47
2022-12-08T07:43:11.161Z,10.33
2022-12-08T07:45:39.034Z,11.10
2022-12-08T07:48:07.573Z,10.70
2022-12-08T07:50:35.666Z,8.63
2022-12-08T07:53:03.520Z,9.50
2022-12-08T07:55:31.305Z,9.00
2022-12-08T07:58:00.411Z,9.17
2022-12-08T08:00:28.210Z,9.93
2022-12-08T08:02:56.243Z,9.00
2022-12-08T08:05:24.600Z,9.53
2022-12-08T08:07:52.567Z,11.27
2022-12-08T08:10:20.384Z,11.10
2022-12-08T08:12:48.667Z,10.47
2022-12-08T08:15:19.344Z,9.97
2022-12-08T08:17:50.719Z,9.53
2022-12-08T08:20:19.601Z,9.40
2022-12-08T08:22:48.058Z,9.33
2022-12-08T08:25:16.297Z,9.07
2022-12-08T08:27:44.612Z,8.80
2022-12-08T08:30:20.025Z,9.70
2022-12-08T08:32:50.519Z,8.70
2022-12-08T08:35:18.698Z,11.60
2022-12-08T08:37:49.268Z,8.43
2022-12-08T08:40:17.696Z,9.03
2022-12-08T08:42:45.447Z,9.73
2022-12-08T08:45:13.360Z,10.43
2022-12-08T08:47:41.159Z,9.90
2022-12-08T08:50:10.615Z,9.37
2022-12-08T08:52:38.442Z,10.20
2022-12-08T08:55:07.109Z,11.73
2022-12-08T08:57:34.957Z,11.53
2022-12-08T09:00:03.818Z,12.67
2022-12-08T09:02:38.552Z,10.93
2022-12-08T09:05:07.915Z,9.23
2022-12-08T09:07:37.288Z,9.30
2022-12-08T09:10:06.162Z,9.00
2022-12-08T09:12:34.163Z,8.80
2022-12-08T09:15:01.918Z,9.90
2022-12-08T09:17:29.680Z,8.77
2022-12-08T09:19:57.460Z,8.87
2022-12-08T09:22:25.244Z,7.97
2022-12-08T09:24:54.497Z,8.63
2022-12-08T09:27:22.361Z,8.20
2022-12-08T09:29:50.241Z,7.77
2022-12-08T09:32:18.397Z,7.97
2022-12-08T09:34:52.091Z,7.33
2022-12-08T09:37:20.175Z,7.97
2022-12-08T09:39:47.959Z,9.00
2022-12-08T09:42:27.047Z,7.87
2022-12-08T09:45:03.762Z,7.40
2022-12-08T09:47:36.641Z,6.77
2022-12-08T09:50:11.839Z,7.50
2022-12-08T09:52:44.742Z,7.73
2022-12-08T09:55:23.581Z,8.10
2022-12-08T09:57:59.628Z,8.53
2022-12-08T10:00:27.779Z,9.63
2022-12-08T10:02:56.843Z,8.63
2022-12-08T10:05:26.952Z,8.90
2022-12-08T10:08:05.288Z,8.87
2022-12-08T10:10:39.916Z,8.10
2022-12-08T10:13:17.433Z,8.87
2022-12-08T10:15:49.113Z,7.90
2022-12-08T10:18:19.065Z,7.57
2022-12-08T10:20:48.564Z,8.37
2022-12-08T10:23:26.282Z,8.40
2022-12-08T10:26:02.472Z,8.23
2022-12-08T10:28:32.672Z,7.10
2022-12-08T10:31:00.556Z,8.00
2022-12-08T10:33:29.538Z,7.53
2022-12-08T10:36:00.578Z,7.40
2022-12-08T10:38:31.424Z,7.43
2022-12-08T10:41:04.536Z,8.47
2022-12-08T10:43:35.573Z,8.63
2022-12-08T10:46:12.469Z,8.63
2022-12-08T10:48:49.514Z,9.63
2022-12-08T10:51:25.435Z,7.90
2022-12-08T10:53:53.560Z,7.27
2022-12-08T10:56:26.841Z,7.63
2022-12-08T10:59:13.653Z,7.70
2022-12-08T11:01:43.345Z,6.73
2022-12-08T11:04:16.630Z,6.50
2022-12-08T11:06:45.373Z,8.70
2022-12-08T11:09:38.358Z,6.93
2022-12-08T11:12:14.337Z,7.13
2022-12-08T11:14:59.004Z,6.70
2022-12-08T11:17:29.464Z,7.07
2022-12-08T11:20:00.023Z,6.73
2022-12-08T11:22:33.056Z,7.50
2022-12-08T11:25:10.311Z,9.50
2022-12-08T11:27:41.051Z,9.37
2022-12-08T11:30:17.892Z,9.80
2022-12-08T11:32:47.879Z,12.07
2022-12-08T11:35:28.405Z,12.47
2022-12-08T11:38:13.525Z,13.63
2022-12-08T11:40:47.968Z,13.43
2022-12-08T11:43:20.079Z,13.27
2022-12-08T11:45:54.148Z,16.37
2022-12-08T11:48:28.980Z,15.73
2022-12-08T11:51:01.926Z,14.17
2022-12-08T11:53:35.960Z,14.53
2022-12-08T11:56:09.573Z,12.30
2022-12-08T11:58:42.300Z,13.80
2022-12-08T12:01:20.581Z,14.90
2022-12-08T12:03:56.183Z,12.60
2022-12-08T12:06:55.795Z,14.13
2022-12-08T12:09:36.725Z,13.40
2022-12-08T12:12:16.856Z,16.93
2022-12-08T12:15:08.736Z,14.70
2022-12-08T12:17:44.602Z,15.13
2022-12-08T12:20:18.489Z,13.47
2022-12-08T12:22:51.038Z,20.07
2022-12-08T12:25:22.661Z,14.17
2022-12-08T12:27:57.303Z,13.30
2022-12-08T12:30:27.561Z,19.57
2022-12-08T12:33:00.258Z,15.13
2022-12-08T12:35:34.566Z,14.97
2022-12-08T12:38:27.381Z,13.63
2022-12-08T12:41:02.194Z,13.80
2022-12-08T12:43:33.817Z,13.23
2022-12-08T12:46:39.380Z,12.47
2022-12-08T12:49:45.970Z,17.60
2022-12-08T12:52:50.587Z,11.70
2022-12-08T12:55:52.141Z,15.47
2022-12-08T12:58:37.667Z,13.60
2022-12-08T13:01:49.837Z,16.77
2022-12-08T13:04:18.574Z,13.27
2022-12-08T13:06:49.841Z,13.57
2022-12-08T13:09:23.276Z,18.00
2022-12-08T13:11:54.447Z,16.70
2022-12-08T13:14:46.708Z,20.00
2022-12-08T13:17:25.374Z,17.60
2022-12-08T13:19:57.232Z,19.87
2022-12-08T13:22:58.462Z,17.17
2022-12-08T13:26:10.764Z,17.77
2022-12-08T13:29:21.126Z,20.17
2022-12-08T13:31:53.672Z,21.43
2022-12-08T13:34:29.612Z,19.90
2022-12-08T13:37:27.385Z,17.00
2022-12-08T13:40:00.261Z,15.03
2022-12-08T13:42:36.928Z,18.30
2022-12-08T13:45:40.078Z,17.07
2022-12-08T13:57:10.122Z,18.37
2022-12-08T13:59:45.651Z,18.10
2022-12-08T14:02:18.618Z,16.60
2022-12-08T14:05:16.860Z,16.60
2022-12-08T14:07:37.829Z,19.70
2022-12-08T14:10:10.059Z,16.40
2022-12-08T14:12:38.754Z,19.97
2022-12-08T14:15:14.752Z,15.27
2022-12-08T14:17:51.574Z,13.90
2022-12-08T14:20:25.967Z,15.90
2022-12-08T14:22:54.701Z,14.47
2022-12-08T14:25:23.759Z,14.20
2022-12-08T14:27:57.671Z,14.27
2022-12-08T14:30:30.574Z,17.87
2022-12-08T14:32:59.689Z,18.93
2022-12-08T14:35:30.806Z,16.97
2022-12-08T14:38:00.433Z,17.60
2022-12-08T14:40:33.626Z,18.00
2022-12-08T14:43:15.932Z,18.10
2022-12-08T14:45:50.595Z,17.27
2022-12-08T14:48:23.393Z,16.50
2022-12-08T14:51:02.965Z,19.07
2022-12-08T14:53:41.367Z,18.13
2022-12-08T14:56:16.535Z,18.33
2022-12-08T14:58:44.783Z,20.70
2022-12-08T15:01:14.984Z,16.90
2022-12-08T15:03:48.885Z,16.27
2022-12-08T15:06:22.499Z,17.80
2022-12-08T15:08:58.598Z,18.23
2022-12-08T15:11:34.557Z,21.30
2022-12-08T15:14:02.784Z,21.17
2022-12-08T15:16:38.661Z,21.30
2022-12-08T15:19:17.341Z,21.07
2022-12-08T15:21:48.199Z,22.13
2022-12-08T15:24:16.706Z,25.17
2022-12-08T15:26:46.983Z,20.90
2022-12-08T15:29:21.132Z,25.80
2022-12-08T15:31:49.226Z,26.80
2022-12-08T15:34:17.085Z,25.43
2022-12-08T15:36:46.523Z,23.13
2022-12-08T15:39:26.250Z,28.07
2022-12-08T15:41:54.059Z,23.77
2022-12-08T15:44:21.882Z,24.80
2022-12-08T15:46:50.006Z,26.70
2022-12-08T15:49:19.493Z,26.07
2022-12-08T15:51:49.058Z,27.10
2022-12-08T15:54:17.222Z,27.53
2022-12-08T15:57:17.280Z,26.27
2022-12-08T15:59:35.402Z,23.87
2022-12-08T16:02:03.230Z,25.40
2022-12-08T16:07:25.170Z,25.40
2022-12-08T16:09:54.234Z,24.77
2022-12-08T16:13:40.463Z,27.13
2022-12-08T16:18:26.752Z,25.17
2022-12-08T16:21:22.880Z,23.80
2022-12-08T16:23:45.029Z,26.13
2022-12-08T16:26:28.669Z,26.47
2022-12-08T16:29:03.519Z,24.33
2022-12-08T16:31:32.083Z,26.80
2022-12-08T16:34:01.690Z,24.70
2022-12-08T16:36:29.529Z,27.13
2022-12-08T16:38:58.697Z,27.73
2022-12-08T16:41:44.145Z,25.63
2022-12-08T16:44:12.006Z,25.20
2022-12-08T16:46:39.878Z,25.27
2022-12-08T16:49:09.912Z,25.37
2022-12-08T16:51:37.734Z,25.37
2022-12-08T16:54:07.022Z,26.67
2022-12-08T16:56:35.160Z,26.67
2022-12-08T16:59:03.171Z,24.90
2022-12-08T17:01:31.086Z,24.27
2022-12-08T17:04:30.043Z,25.17
2022-12-08T17:06:46.749Z,21.87
2022-12-08T17:09:15.889Z,25.33
2022-12-08T17:11:44.081Z,25.20
2022-12-08T17:14:12.642Z,23.77
2022-12-08T17:16:41.064Z,23.03
2022-12-08T17:19:08.899Z,24.20
2022-12-08T17:21:36.946Z,20.53
2022-12-08T17:24:05.210Z,20.50
2022-12-08T17:26:35.359Z,22.33
2022-12-08T17:29:04.160Z,25.80
2022-12-08T17:31:33.408Z,23.13
2022-12-08T17:34:02.024Z,23.60
2022-12-08T17:36:30.402Z,23.07
2022-12-08T17:39:00.734Z,21.73
2022-12-08T17:41:29.010Z,25.80
2022-12-08T17:43:58.491Z,23.23
2022-12-08T17:46:26.510Z,22.13
2022-12-08T17:48:55.045Z,22.53
2022-12-08T17:51:22.833Z,26.80
2022-12-08T17:53:51.236Z,24.67
2022-12-08T17:56:20.665Z,24.70
2022-12-08T17:58:54.337Z,27.37
2022-12-08T18:01:25.068Z,23.53
2022-12-08T18:03:52.928Z,23.03
2022-12-08T18:06:21.247Z,24.77
2022-12-08T18:08:50.229Z,25.07
2022-12-08T18:11:20.088Z,25.67
2022-12-08T18:13:49.199Z,24.77
2022-12-08T18:16:18.748Z,22.60
2022-12-08T18:18:48.192Z,24.50
2022-12-08T18:21:23.060Z,23.67
2022-12-08T18:23:52.192Z,25.37
2022-12-08T18:26:21.315Z,25.40
2022-12-08T18:28:49.268Z,23.60
2022-12-08T18:31:19.362Z,24.73
2022-12-08T18:33:49.432Z,24.27
2022-12-08T18:36:19.353Z,24.60
2022-12-08T18:38:48.118Z,25.30
2022-12-08T18:41:18.094Z,26.03
2022-12-08T18:43:46.322Z,24.33
2022-12-08T18:46:15.863Z,24.77
2022-12-08T18:48:45.929Z,24.27
2022-12-08T18:51:17.509Z,24.03
2022-12-08T18:53:46.153Z,22.63
2022-12-08T18:56:23.130Z,29.83
2022-12-08T18:58:50.997Z,24.83
2022-12-08T19:01:18.953Z,27.60
2022-12-08T19:04:12.061Z,25.13
2022-12-08T19:06:39.190Z,26.40
2022-12-08T19:09:07.541Z,23.07
2022-12-08T19:11:35.384Z,24.30
2022-12-08T19:14:03.392Z,22.30
2022-12-08T19:16:31.397Z,27.37
2022-12-08T19:18:59.275Z,28.93
2022-12-08T19:21:27.180Z,29.70
2022-12-08T19:23:58.385Z,33.57
2022-12-08T19:26:26.892Z,34.50
2022-12-08T19:28:55.043Z,31.27
2022-12-08T19:31:23.272Z,31.20
2022-12-08T19:33:51.271Z,28.97
2022-12-08T19:36:21.019Z,28.77
2022-12-08T19:39:06.961Z,31.23
2022-12-08T19:41:55.023Z,33.53
2022-12-08T19:44:42.967Z,34.13
2022-12-08T19:47:10.976Z,32.17
2022-12-08T19:49:38.997Z,31.53
2022-12-08T19:52:07.447Z,32.53
2022-12-08T19:54:36.427Z,30.27
2022-12-08T19:57:05.620Z,30.83
2022-12-08T19:59:33.416Z,32.53
2022-12-08T20:02:01.274Z,32.50
2022-12-08T20:04:29.231Z,30.23
2022-12-08T20:06:58.086Z,29.47
2022-12-08T20:09:26.199Z,26.10
2022-12-08T20:11:55.000Z,24.30
2022-12-08T20:14:25.288Z,32.20
2022-12-08T20:16:53.168Z,28.23
2022-12-08T20:19:21.104Z,27.30
2022-12-08T20:21:49.150Z,29.87
2022-12-08T20:24:17.728Z,31.30
2022-12-08T20:26:45.610Z,32.73
2022-12-08T20:29:16.825Z,30.23
2022-12-08T20:31:46.389Z,31.00
2022-12-08T20:34:15.226Z,29.67
2022-12-08T20:36:43.075Z,28.23
2022-12-08T20:39:13.658Z,34.30
2022-12-08T20:41:41.561Z,30.07
2022-12-08T20:44:09.660Z,27.27
2022-12-08T20:46:37.512Z,27.73
2022-12-08T20:49:06.870Z,26.43
2022-12-08T20:51:35.236Z,29.47
2022-12-08T20:54:04.449Z,27.00
2022-12-08T20:56:32.869Z,28.17
2022-12-08T20:59:00.789Z,29.27
2022-12-08T21:01:28.998Z,26.50
2022-12-08T21:03:57.232Z,29.90
2022-12-08T21:06:28.135Z,27.17
2022-12-08T21:08:56.184Z,26.37
2022-12-08T21:11:24.224Z,25.97
2022-12-08T21:13:52.447Z,27.30
2022-12-08T21:16:20.467Z,31.20
2022-12-08T21:18:48.637Z,26.53
2022-12-08T21:21:17.863Z,25.03
2022-12-08T21:23:47.326Z,28.43
2022-12-08T21:26:17.514Z,25.37
2022-12-08T21:28:46.651Z,26.97
2022-12-08T21:31:17.058Z,24.83
2022-12-08T21:33:45.130Z,24.80
2022-12-08T21:36:15.901Z,28.87
2022-12-08T21:38:44.756Z,28.97
2022-12-08T21:41:15.914Z,34.03
2022-12-08T21:43:44.129Z,33.57
2022-12-08T21:46:16.910Z,32.37
2022-12-08T21:48:45.104Z,36.00
2022-12-08T21:51:13.314Z,29.83
2022-12-08T21:53:41.356Z,23.53
2022-12-08T21:56:09.937Z,26.83
2022-12-08T21:58:39.811Z,21.30
2022-12-08T22:01:09.440Z,24.17
2022-12-08T22:03:39.191Z,25.30
2022-12-08T22:06:08.211Z,28.73
2022-12-08T22:08:36.439Z,29.87
2022-12-08T22:11:05.307Z,28.83
2022-12-08T22:13:36.622Z,28.07
2022-12-08T22:16:08.123Z,27.97
2022-12-08T22:18:36.690Z,27.33
2022-12-08T22:21:09.436Z,26.07
2022-12-08T22:23:37.793Z,24.10
2022-12-08T22:26:06.424Z,23.37
2022-12-08T22:28:36.249Z,28.47
2022-12-08T22:31:10.992Z,35.10
2022-12-08T22:33:40.911Z,35.00
2022-12-08T22:36:14.541Z,29.57
2022-12-08T22:38:42.450Z,30.73
2022-12-08T22:41:10.228Z,26.53
2022-12-08T22:43:38.387Z,31.33
2022-12-08T22:46:12.100Z,32.50
2022-12-08T22:48:40.629Z,30.80
2022-12-08T22:51:08.792Z,26.83
2022-12-08T22:53:36.671Z,23.67
2022-12-08T22:56:05.408Z,22.70
2022-12-08T22:58:33.437Z,22.10
2022-12-08T23:01:01.287Z,20.20
2022-12-08T23:03:30.760Z,21.30
2022-12-08T23:06:00.949Z,23.10
2022-12-08T23:08:29.316Z,20.63
2022-12-08T23:10:57.487Z,18.60
2022-12-08T23:13:25.503Z,20.37
2022-12-08T23:15:53.254Z,22.03
2022-12-08T23:18:21.186Z,18.97
2022-12-08T23:20:50.389Z,76.77
2022-12-08T23:23:18.176Z,37.30
2022-12-08T23:25:46.054Z,35.30
2022-12-08T23:28:13.959Z,22.20
2022-12-08T23:30:42.113Z,19.10
2022-12-08T23:33:10.056Z,32.63
2022-12-08T23:35:37.976Z,30.13
2022-12-08T23:38:07.168Z,28.43
2022-12-08T23:40:35.404Z,28.43
2022-12-08T23:43:03.435Z,25.67
2022-12-08T23:45:31.320Z,27.70
2022-12-08T23:47:59.222Z,28.23
2022-12-08T23:50:27.142Z,26.90
2022-12-08T23:52:54.903Z,33.63
2022-12-08T23:55:24.151Z,32.67
2022-12-08T23:57:52.024Z,65.33
